createdAt,value
2024-02-02T00:00:22.483Z,67.14
2024-02-02T00:02:48.968Z,67.72
2024-02-02T00:05:15.445Z,67.87
2024-02-02T00:07:41.834Z,67.80
2024-02-02T00:10:08.238Z,68.36
2024-02-02T00:12:34.659Z,67.89
2024-02-02T00:15:01.245Z,67.01
2024-02-02T00:17:27.657Z,67.58
2024-02-02T00:19:54.120Z,67.24
2024-02-02T00:22:20.534Z,67.32
2024-02-02T00:24:46.931Z,67.34
2024-02-02T00:27:13.383Z,67.25
2024-02-02T00:29:39.798Z,66.83
2024-02-02T00:32:06.209Z,67.37
2024-02-02T00:34:32.816Z,67.09
2024-02-02T00:36:59.316Z,67.67
2024-02-02T00:39:25.812Z,67.77
2024-02-02T00:41:52.301Z,67.56
2024-02-02T00:44:18.708Z,68.60
2024-02-02T00:46:45.088Z,68.18
2024-02-02T00:49:11.575Z,68.25
2024-02-02T00:51:38.090Z,67.93
2024-02-02T00:54:04.521Z,68.43
2024-02-02T00:56:30.954Z,68.94
2024-02-02T00:58:57.340Z,69.20
2024-02-02T01:01:24.066Z,69.28
2024-02-02T01:03:50.556Z,68.07
2024-02-02T01:06:17.090Z,69.25
2024-02-02T01:08:43.543Z,69.30
2024-02-02T01:11:10.205Z,68.88
2024-02-02T01:13:36.614Z,68.86
2024-02-02T01:16:03.011Z,68.54
2024-02-02T01:18:29.608Z,68.46
2024-02-02T01:20:56.218Z,68.00
2024-02-02T01:23:22.657Z,68.20
2024-02-02T01:25:49.048Z,67.92
2024-02-02T01:28:15.450Z,68.99
2024-02-02T01:30:41.881Z,67.88
2024-02-02T01:33:08.451Z,68.52
2024-02-02T01:35:34.930Z,67.93
2024-02-02T01:38:01.330Z,67.21
2024-02-02T01:40:27.762Z,67.46
2024-02-02T01:42:54.159Z,66.99
2024-02-02T01:45:20.642Z,67.02
2024-02-02T01:47:47.185Z,67.94
2024-02-02T01:50:13.683Z,68.07
2024-02-02T01:52:40.110Z,67.74
2024-02-02T01:55:06.508Z,67.64
2024-02-02T01:57:32.936Z,67.22
2024-02-02T01:59:59.339Z,67.29
2024-02-02T02:02:25.727Z,66.85
2024-02-02T02:04:52.132Z,66.70
2024-02-02T02:07:18.558Z,67.25
2024-02-02T02:09:45.041Z,66.54
2024-02-02T02:12:11.474Z,67.29
2024-02-02T02:14:37.904Z,67.73
2024-02-02T02:17:04.319Z,67.86
2024-02-02T02:19:30.845Z,68.57
2024-02-02T02:21:57.305Z,68.30
2024-02-02T02:24:23.747Z,69.02
2024-02-02T02:26:50.169Z,68.88
2024-02-02T02:29:16.541Z,68.21
2024-02-02T02:31:42.936Z,67.51
2024-02-02T02:34:09.523Z,66.97
2024-02-02T02:36:36.039Z,66.64
2024-02-02T02:39:02.476Z,66.59
2024-02-02T02:41:28.872Z,66.52
2024-02-02T02:43:55.282Z,67.09
2024-02-02T02:46:21.675Z,67.54
2024-02-02T02:48:48.182Z,66.67
2024-02-02T02:51:14.748Z,65.97
2024-02-02T02:53:41.169Z,66.21
2024-02-02T02:56:07.580Z,66.69
2024-02-02T02:58:33.985Z,67.14
2024-02-02T03:01:00.433Z,67.29
2024-02-02T03:03:26.906Z,67.42
2024-02-02T03:05:53.424Z,67.64
2024-02-02T03:08:19.900Z,67.54
2024-02-02T03:10:46.301Z,67.43
2024-02-02T03:13:12.682Z,67.22
2024-02-02T03:15:39.060Z,67.67
2024-02-02T03:18:05.549Z,67.65
2024-02-02T03:20:31.984Z,67.99
2024-02-02T03:22:58.378Z,67.09
2024-02-02T03:25:24.760Z,66.79
2024-02-02T03:27:51.155Z,65.62
2024-02-02T03:30:17.587Z,65.23
2024-02-02T03:32:44.142Z,65.62
2024-02-02T03:35:10.625Z,65.37
2024-02-02T03:37:37.013Z,65.76
2024-02-02T03:40:03.427Z,66.34
2024-02-02T03:42:29.889Z,65.70
2024-02-02T03:44:56.326Z,65.45
2024-02-02T03:47:22.737Z,65.81
2024-02-02T03:49:49.161Z,65.76
2024-02-02T03:52:15.645Z,65.52
2024-02-02T03:54:42.050Z,65.48
2024-02-02T03:57:08.469Z,65.21
2024-02-02T03:59:34.873Z,65.46
2024-02-02T04:02:01.275Z,66.19
2024-02-02T04:04:27.688Z,66.91
2024-02-02T04:06:54.088Z,66.50
2024-02-02T04:09:20.535Z,66.53
2024-02-02T04:11:46.957Z,66.09
2024-02-02T04:14:13.346Z,65.62
2024-02-02T04:16:39.734Z,66.43
2024-02-02T04:19:06.269Z,66.72
2024-02-02T04:21:32.740Z,65.57
2024-02-02T04:23:59.242Z,64.38
2024-02-02T04:26:25.719Z,64.98
2024-02-02T04:28:52.120Z,66.20
2024-02-02T04:31:18.515Z,66.21
2024-02-02T04:33:45.028Z,64.85
2024-02-02T04:36:11.601Z,65.27
2024-02-02T04:38:37.979Z,64.69
2024-02-02T04:41:04.355Z,65.16
2024-02-02T04:43:30.816Z,65.74
2024-02-02T04:45:57.274Z,65.54
2024-02-02T04:48:24.477Z,65.77
2024-02-02T04:50:50.945Z,66.31
2024-02-02T04:53:17.376Z,66.63
2024-02-02T04:55:43.769Z,66.63
2024-02-02T04:58:10.205Z,66.44
2024-02-02T05:00:36.774Z,66.65
2024-02-02T05:03:03.318Z,66.14
2024-02-02T05:05:29.800Z,66.56
2024-02-02T05:07:56.354Z,66.68
2024-02-02T05:10:22.849Z,67.53
2024-02-02T05:12:49.244Z,67.77
2024-02-02T05:15:15.691Z,68.46
2024-02-02T05:17:42.197Z,67.28
2024-02-02T05:20:08.648Z,66.47
2024-02-02T05:22:35.062Z,66.68
2024-02-02T05:25:01.505Z,65.75
2024-02-02T05:27:27.967Z,65.77
2024-02-02T05:29:54.410Z,65.52
2024-02-02T05:32:20.828Z,66.47
2024-02-02T05:34:47.315Z,66.70
2024-02-02T05:37:13.807Z,67.18
2024-02-02T05:39:40.276Z,67.21
2024-02-02T05:42:06.722Z,69.25
2024-02-02T05:44:33.117Z,67.54
2024-02-02T05:46:59.521Z,66.75
2024-02-02T05:49:26.149Z,67.14
2024-02-02T05:51:52.749Z,66.96
2024-02-02T05:54:19.289Z,66.04
2024-02-02T05:56:45.702Z,66.58
2024-02-02T05:59:12.105Z,66.63
2024-02-02T06:01:38.592Z,66.75
2024-02-02T06:04:05.134Z,68.28
2024-02-02T06:06:31.672Z,69.04
2024-02-02T06:09:00.460Z,69.68
2024-02-02T06:11:27.377Z,68.53
2024-02-02T06:13:53.768Z,68.61
2024-02-02T06:16:20.138Z,67.96
2024-02-02T06:18:46.589Z,68.86
2024-02-02T06:21:13.078Z,68.66
2024-02-02T06:23:39.485Z,68.59
2024-02-02T06:26:05.887Z,70.58
2024-02-02T06:28:32.280Z,69.46
2024-02-02T06:30:58.680Z,68.63
2024-02-02T06:33:25.265Z,71.29
2024-02-02T06:35:51.801Z,72.20
2024-02-02T06:38:18.240Z,68.75
2024-02-02T06:40:44.660Z,69.70
2024-02-02T06:43:11.062Z,67.45
2024-02-02T06:45:37.537Z,66.88
2024-02-02T06:48:04.135Z,69.03
2024-02-02T06:50:30.615Z,67.93
2024-02-02T06:52:57.025Z,65.71
2024-02-02T06:55:23.463Z,66.10
2024-02-02T06:57:50.472Z,66.31
2024-02-02T07:00:17.091Z,65.38
2024-02-02T07:02:43.600Z,65.68
2024-02-02T07:05:10.005Z,65.44
2024-02-02T07:07:36.389Z,65.71
2024-02-02T07:10:02.780Z,64.47
2024-02-02T07:12:29.441Z,65.12
2024-02-02T07:14:55.910Z,64.33
2024-02-02T07:17:22.319Z,65.94
2024-02-02T07:19:48.783Z,66.34
2024-02-02T07:22:15.178Z,67.37
2024-02-02T07:24:41.622Z,66.56
2024-02-02T07:27:08.133Z,65.43
2024-02-02T07:29:34.530Z,64.08
2024-02-02T07:32:00.919Z,62.82
2024-02-02T07:34:27.691Z,62.96
2024-02-02T07:36:54.225Z,64.11
2024-02-02T07:39:20.677Z,64.60
2024-02-02T07:41:47.105Z,65.47
2024-02-02T07:44:13.495Z,65.97
2024-02-02T07:46:40.024Z,65.06
2024-02-02T07:49:06.514Z,64.92
2024-02-02T07:51:32.920Z,64.98
2024-02-02T07:53:59.370Z,65.53
2024-02-02T07:56:26.108Z,66.35
2024-02-02T07:58:52.659Z,66.98
2024-02-02T08:01:19.357Z,66.64
2024-02-02T08:03:45.961Z,67.25
2024-02-02T08:06:12.612Z,67.40
2024-02-02T08:08:39.079Z,66.92
2024-02-02T08:11:05.510Z,66.91
2024-02-02T08:13:32.060Z,67.10
2024-02-02T08:15:58.508Z,66.94
2024-02-02T08:18:24.976Z,67.61
2024-02-02T08:20:51.426Z,67.34
2024-02-02T08:23:17.823Z,67.21
2024-02-02T08:25:44.210Z,67.07
2024-02-02T08:28:10.596Z,67.77
2024-02-02T08:30:37.046Z,67.53
2024-02-02T08:33:03.501Z,67.75
2024-02-02T08:35:30.199Z,67.32
2024-02-02T08:37:56.600Z,67.53
2024-02-02T08:40:23.009Z,67.65
2024-02-02T08:42:49.412Z,67.11
2024-02-02T08:45:15.880Z,66.87
2024-02-02T08:47:42.275Z,69.17
2024-02-02T08:50:08.770Z,68.23
2024-02-02T08:52:35.205Z,67.74
2024-02-02T08:55:01.578Z,67.64
2024-02-02T08:57:28.236Z,67.61
2024-02-02T08:59:54.746Z,67.08
2024-02-02T09:02:21.272Z,65.58
2024-02-02T09:04:47.673Z,64.63
2024-02-02T09:07:14.201Z,66.55
2024-02-02T09:09:40.720Z,67.07
2024-02-02T09:12:07.144Z,66.71
2024-02-02T09:14:33.546Z,67.35
2024-02-02T09:16:59.925Z,66.85
2024-02-02T09:19:26.379Z,66.35
2024-02-02T09:21:52.791Z,65.34
2024-02-02T09:24:19.212Z,64.54
2024-02-02T09:26:45.714Z,64.15
2024-02-02T09:29:12.159Z,64.88
2024-02-02T09:31:39.164Z,64.89
2024-02-02T09:34:06.086Z,65.18
2024-02-02T09:36:32.663Z,64.23
2024-02-02T09:38:59.208Z,63.63
2024-02-02T09:41:25.637Z,63.47
2024-02-02T09:43:52.017Z,63.05
2024-02-02T09:46:18.449Z,63.14
2024-02-02T09:48:45.007Z,62.81
2024-02-02T09:51:11.642Z,62.03
2024-02-02T09:53:38.095Z,62.22
2024-02-02T09:56:04.470Z,61.83
2024-02-02T09:58:30.989Z,62.24
2024-02-02T10:00:57.423Z,61.91
2024-02-02T10:03:23.904Z,61.69
2024-02-02T10:05:50.364Z,61.27
2024-02-02T10:08:16.795Z,61.30
2024-02-02T10:10:43.202Z,61.05
2024-02-02T10:13:09.575Z,61.48
2024-02-02T10:15:36.052Z,60.80
2024-02-02T10:18:02.635Z,60.02
2024-02-02T10:20:29.077Z,59.92
2024-02-02T10:22:55.486Z,60.33
2024-02-02T10:25:21.902Z,60.26
2024-02-02T10:27:48.277Z,60.63
2024-02-02T10:30:14.701Z,60.43
2024-02-02T10:32:41.159Z,61.06
2024-02-02T10:35:07.596Z,61.24
2024-02-02T10:37:33.972Z,60.94
2024-02-02T10:40:00.378Z,61.24
2024-02-02T10:42:26.792Z,61.75
2024-02-02T10:44:53.322Z,62.42
2024-02-02T10:47:19.753Z,63.38
2024-02-02T10:49:46.272Z,63.82
2024-02-02T10:52:12.686Z,64.12
2024-02-02T10:54:39.300Z,64.59
2024-02-02T10:57:05.822Z,65.24
2024-02-02T10:59:32.251Z,65.50
2024-02-02T11:01:58.805Z,65.77
2024-02-02T11:04:25.297Z,66.75
2024-02-02T11:06:51.999Z,66.16
2024-02-02T11:09:18.609Z,68.00
2024-02-02T11:11:45.022Z,68.94
2024-02-02T11:14:11.421Z,69.07
2024-02-02T11:16:37.835Z,69.39
2024-02-02T11:19:04.462Z,70.35
2024-02-02T11:21:31.050Z,70.19
2024-02-02T11:23:57.475Z,70.72
2024-02-02T11:26:23.880Z,70.43
2024-02-02T11:28:50.293Z,70.78
2024-02-02T11:31:16.690Z,70.58
2024-02-02T11:33:43.188Z,70.49
2024-02-02T11:36:09.652Z,70.14
2024-02-02T11:38:36.096Z,69.46
2024-02-02T11:41:02.499Z,68.75
2024-02-02T11:43:28.893Z,68.43
2024-02-02T11:45:55.301Z,67.99
2024-02-02T11:48:21.904Z,68.00
2024-02-02T11:50:48.431Z,68.07
2024-02-02T11:53:14.847Z,68.06
2024-02-02T11:55:41.244Z,68.18
2024-02-02T11:58:07.760Z,67.58
2024-02-02T12:00:34.192Z,67.65
2024-02-02T12:03:00.611Z,67.26
2024-02-02T12:05:27.084Z,67.44
2024-02-02T12:07:53.551Z,67.23
2024-02-02T12:10:20.073Z,67.29
2024-02-02T12:12:46.496Z,67.17
2024-02-02T12:15:12.982Z,66.66
2024-02-02T12:17:39.406Z,66.31
2024-02-02T12:20:05.934Z,66.18
2024-02-02T12:22:32.405Z,65.88
2024-02-02T12:24:58.831Z,65.24
2024-02-02T12:27:25.321Z,65.28
2024-02-02T12:29:51.728Z,64.85
2024-02-02T12:32:18.119Z,65.14
2024-02-02T12:34:44.581Z,65.04
2024-02-02T12:37:11.060Z,65.03
2024-02-02T12:39:37.504Z,65.39
2024-02-02T12:42:05.855Z,65.62
2024-02-02T12:44:33.019Z,65.74
2024-02-02T12:46:59.411Z,65.73
2024-02-02T12:49:26.700Z,66.18
2024-02-02T12:51:53.317Z,66.65
2024-02-02T12:54:19.835Z,66.61
2024-02-02T12:56:46.256Z,66.31
2024-02-02T12:59:12.658Z,66.55
2024-02-02T13:01:39.151Z,65.81
2024-02-02T13:04:05.681Z,66.21
2024-02-02T13:06:32.133Z,66.17
2024-02-02T13:08:58.569Z,66.08
2024-02-02T13:11:24.996Z,65.48
2024-02-02T13:13:51.395Z,65.19
2024-02-02T13:16:17.770Z,64.97
2024-02-02T13:18:44.233Z,65.78
2024-02-02T13:21:10.645Z,65.47
2024-02-02T13:23:37.344Z,65.44
2024-02-02T13:26:03.801Z,65.79
2024-02-02T13:28:30.215Z,65.75
2024-02-02T13:30:56.755Z,65.72
2024-02-02T13:33:23.294Z,66.04
2024-02-02T13:35:49.802Z,65.82
2024-02-02T13:38:16.267Z,65.80
2024-02-02T13:40:42.699Z,65.67
2024-02-02T13:43:09.104Z,65.13
2024-02-02T13:45:35.578Z,65.77
2024-02-02T13:48:02.237Z,65.51
2024-02-02T13:50:28.815Z,65.12
2024-02-02T13:52:55.198Z,66.30
2024-02-02T13:55:21.588Z,65.88
2024-02-02T13:57:47.999Z,66.16
2024-02-02T14:00:14.527Z,66.35
2024-02-02T14:02:41.019Z,66.55
2024-02-02T14:05:07.410Z,67.12
2024-02-02T14:07:33.865Z,66.68
2024-02-02T14:10:00.291Z,66.43
2024-02-02T14:12:26.774Z,66.20
2024-02-02T14:14:53.183Z,65.22
2024-02-02T14:17:19.564Z,65.26
2024-02-02T14:19:45.956Z,64.86
2024-02-02T14:22:12.355Z,65.04
2024-02-02T14:24:38.770Z,65.08
2024-02-02T14:27:05.225Z,65.19
2024-02-02T14:29:31.627Z,64.63
2024-02-02T14:31:58.032Z,65.15
2024-02-02T14:34:24.574Z,64.57
2024-02-02T14:36:51.047Z,65.07
2024-02-02T14:39:17.474Z,64.27
2024-02-02T14:41:43.874Z,64.50
2024-02-02T14:44:10.270Z,64.61
2024-02-02T14:46:36.663Z,64.22
2024-02-02T14:49:04.004Z,64.27
2024-02-02T14:51:31.863Z,64.23
2024-02-02T14:53:58.324Z,64.26
2024-02-02T14:56:24.743Z,64.80
2024-02-02T14:58:51.143Z,63.81
2024-02-02T15:01:17.576Z,63.94
2024-02-02T15:03:44.098Z,63.88
2024-02-02T15:06:10.646Z,63.62
2024-02-02T15:08:37.056Z,63.47
2024-02-02T15:11:03.437Z,62.66
2024-02-02T15:13:29.827Z,62.83
2024-02-02T15:15:56.228Z,63.73
2024-02-02T15:18:22.763Z,62.22
2024-02-02T15:20:49.247Z,62.00
2024-02-02T15:23:15.643Z,61.98
2024-02-02T15:25:42.032Z,60.94
2024-02-02T15:28:08.423Z,61.34
2024-02-02T15:30:34.845Z,61.64
2024-02-02T15:33:01.331Z,61.93
2024-02-02T15:35:27.877Z,61.89
2024-02-02T15:37:54.321Z,61.39
2024-02-02T15:40:20.794Z,61.12
2024-02-02T15:42:47.359Z,61.10
2024-02-02T15:45:13.799Z,60.71
2024-02-02T15:47:40.330Z,60.93
2024-02-02T15:50:06.902Z,59.81
2024-02-02T15:52:33.357Z,61.08
2024-02-02T15:54:59.738Z,60.61
2024-02-02T15:57:26.210Z,60.72
2024-02-02T15:59:52.624Z,61.69
2024-02-02T16:02:19.004Z,60.28
2024-02-02T16:04:45.404Z,59.60
2024-02-02T16:07:11.832Z,59.61
2024-02-02T16:09:38.390Z,59.35
2024-02-02T16:12:04.861Z,60.32
2024-02-02T16:14:31.270Z,59.13
2024-02-02T16:16:57.648Z,60.30
2024-02-02T16:19:24.142Z,60.43
2024-02-02T16:21:50.600Z,62.35
2024-02-02T16:24:17.050Z,60.50
2024-02-02T16:26:43.464Z,60.24
2024-02-02T16:29:09.889Z,61.13
2024-02-02T16:31:36.282Z,61.33
2024-02-02T16:34:02.847Z,60.76
2024-02-02T16:36:29.895Z,61.16
2024-02-02T16:38:56.297Z,61.66
2024-02-02T16:41:22.680Z,61.81
2024-02-02T16:43:49.056Z,61.63
2024-02-02T16:46:15.477Z,61.56
2024-02-02T16:48:42.086Z,61.64
2024-02-02T16:51:08.575Z,61.76
2024-02-02T16:53:35.016Z,62.37
2024-02-02T16:56:01.453Z,62.65
2024-02-02T16:58:27.840Z,63.25
2024-02-02T17:00:54.272Z,62.74
2024-02-02T17:03:20.756Z,62.82
2024-02-02T17:05:47.201Z,62.85
2024-02-02T17:08:13.582Z,61.91
2024-02-02T17:10:39.966Z,61.72
2024-02-02T17:13:06.347Z,61.60
2024-02-02T17:15:32.751Z,62.14
2024-02-02T17:17:59.163Z,61.48
2024-02-02T17:20:26.639Z,62.29
2024-02-02T17:22:53.046Z,61.68
2024-02-02T17:25:19.463Z,61.25
2024-02-02T17:27:45.895Z,60.91
2024-02-02T17:30:12.343Z,61.45
2024-02-02T17:32:39.616Z,61.54
2024-02-02T17:35:06.576Z,62.00
2024-02-02T17:37:32.981Z,61.47
2024-02-02T17:39:59.397Z,61.44
2024-02-02T17:42:25.803Z,61.29
2024-02-02T17:44:52.196Z,61.60
2024-02-02T17:47:18.586Z,61.24
2024-02-02T17:49:46.013Z,61.48
2024-02-02T17:52:15.813Z,61.16
2024-02-02T17:54:42.254Z,61.69
2024-02-02T17:57:08.656Z,62.05
2024-02-02T17:59:35.064Z,62.07
2024-02-02T18:02:01.430Z,61.84
2024-02-02T18:04:27.937Z,61.95
2024-02-02T18:06:54.395Z,62.15
2024-02-02T18:09:20.870Z,62.05
2024-02-02T18:11:47.290Z,61.98
2024-02-02T18:14:13.720Z,62.39
2024-02-02T18:16:40.112Z,61.88
2024-02-02T18:19:06.593Z,61.83
2024-02-02T18:21:33.107Z,62.29
2024-02-02T18:23:59.501Z,62.40
2024-02-02T18:26:25.880Z,61.88
2024-02-02T18:28:52.276Z,62.03
2024-02-02T18:31:18.666Z,61.68
2024-02-02T18:33:45.152Z,62.36
2024-02-02T18:36:11.627Z,62.27
2024-02-02T18:38:38.059Z,61.98
2024-02-02T18:41:04.442Z,61.83
2024-02-02T18:43:30.838Z,62.15
2024-02-02T18:45:57.204Z,61.71
2024-02-02T18:48:23.752Z,61.91
2024-02-02T18:50:50.287Z,62.17
2024-02-02T18:53:16.691Z,61.66
2024-02-02T18:55:43.059Z,61.96
2024-02-02T18:58:09.457Z,62.27
2024-02-02T19:00:36.044Z,62.24
2024-02-02T19:03:02.560Z,61.96
2024-02-02T19:05:29.009Z,62.02
2024-02-02T19:07:55.389Z,61.93
2024-02-02T19:10:21.773Z,62.01
2024-02-02T19:12:48.214Z,61.49
2024-02-02T19:15:14.659Z,62.49
2024-02-02T19:17:41.163Z,62.44
2024-02-02T19:20:07.678Z,62.50
2024-02-02T19:22:34.076Z,62.59
2024-02-02T19:25:00.523Z,62.47
2024-02-02T19:27:27.017Z,62.55
2024-02-02T19:29:53.472Z,61.75
2024-02-02T19:32:19.866Z,61.82
2024-02-02T19:34:46.313Z,61.05
2024-02-02T19:37:12.767Z,61.56
2024-02-02T19:39:39.214Z,61.06
2024-02-02T19:42:05.670Z,61.08
2024-02-02T19:44:32.079Z,61.07
2024-02-02T19:46:58.462Z,60.94
2024-02-02T19:49:25.004Z,60.90
2024-02-02T19:51:51.507Z,59.77
2024-02-02T19:54:17.908Z,60.28
2024-02-02T19:56:44.676Z,60.90
2024-02-02T19:59:11.070Z,60.74
2024-02-02T20:01:37.497Z,60.69
2024-02-02T20:04:04.080Z,60.78
2024-02-02T20:06:30.614Z,60.87
2024-02-02T20:08:57.143Z,61.64
2024-02-02T20:11:23.535Z,61.64
2024-02-02T20:13:50.128Z,61.87
2024-02-02T20:16:16.627Z,61.89
2024-02-02T20:18:43.136Z,62.08
2024-02-02T20:21:09.726Z,62.33
2024-02-02T20:23:36.124Z,62.09
2024-02-02T20:26:02.501Z,61.97
2024-02-02T20:28:28.903Z,61.89
2024-02-02T20:30:55.342Z,61.66
2024-02-02T20:33:21.909Z,61.00
2024-02-02T20:35:48.350Z,61.28
2024-02-02T20:38:14.743Z,61.31
2024-02-02T20:40:41.145Z,61.34
2024-02-02T20:43:07.670Z,61.45
2024-02-02T20:45:34.090Z,61.59
2024-02-02T20:48:00.590Z,61.76
2024-02-02T20:50:27.012Z,61.14
2024-02-02T20:52:53.406Z,61.24
2024-02-02T20:55:19.788Z,61.30
2024-02-02T20:57:46.253Z,61.55
2024-02-02T21:00:12.857Z,61.85
2024-02-02T21:02:39.281Z,61.47
2024-02-02T21:05:05.658Z,61.51
2024-02-02T21:07:32.146Z,61.65
2024-02-02T21:09:58.576Z,62.03
2024-02-02T21:12:25.005Z,62.10
2024-02-02T21:14:51.411Z,62.17
2024-02-02T21:17:17.769Z,61.89
2024-02-02T21:19:44.260Z,61.93
2024-02-02T21:22:10.706Z,61.92
2024-02-02T21:24:37.127Z,62.25
2024-02-02T21:27:03.607Z,61.88
2024-02-02T21:29:30.023Z,61.66
2024-02-02T21:31:56.427Z,61.95
2024-02-02T21:34:22.881Z,62.53
2024-02-02T21:36:49.338Z,62.23
2024-02-02T21:39:15.790Z,62.37
2024-02-02T21:41:42.179Z,62.80
2024-02-02T21:44:08.582Z,62.30
2024-02-02T21:46:34.966Z,62.73
2024-02-02T21:49:01.516Z,62.38
2024-02-02T21:51:28.016Z,62.27
2024-02-02T21:53:54.398Z,62.54
2024-02-02T21:56:20.778Z,62.10
2024-02-02T21:58:47.171Z,62.25
2024-02-02T22:01:13.625Z,62.55
2024-02-02T22:03:40.104Z,62.37
2024-02-02T22:06:06.601Z,62.30
2024-02-02T22:08:33.048Z,62.37
2024-02-02T22:10:59.420Z,62.32
2024-02-02T22:13:25.792Z,62.42
2024-02-02T22:15:52.214Z,62.76
2024-02-02T22:18:18.725Z,62.50
2024-02-02T22:20:45.152Z,62.21
2024-02-02T22:23:11.531Z,61.99
2024-02-02T22:25:37.904Z,61.69
2024-02-02T22:28:07.085Z,61.37
2024-02-02T22:30:33.692Z,61.57
2024-02-02T22:33:00.202Z,61.19
2024-02-02T22:35:26.675Z,59.61
2024-02-02T22:37:53.074Z,59.60
2024-02-02T22:40:19.460Z,59.50
2024-02-02T22:42:45.913Z,60.28
2024-02-02T22:45:12.381Z,60.38
2024-02-02T22:47:38.900Z,59.96
2024-02-02T22:50:05.952Z,60.20
2024-02-02T22:52:32.995Z,60.48
2024-02-02T22:54:59.386Z,59.89
2024-02-02T22:57:25.808Z,60.04
2024-02-02T22:59:59.364Z,60.23
2024-02-02T23:02:28.652Z,60.16
2024-02-02T23:04:55.051Z,59.74
2024-02-02T23:07:21.456Z,60.04
2024-02-02T23:09:47.916Z,60.09
2024-02-02T23:12:14.326Z,59.89
2024-02-02T23:14:40.749Z,59.59
2024-02-02T23:17:07.148Z,60.05
2024-02-02T23:19:35.291Z,59.56
2024-02-02T23:22:03.227Z,59.38
2024-02-02T23:24:29.664Z,59.99
2024-02-02T23:26:56.079Z,59.39
2024-02-02T23:29:22.480Z,59.36
2024-02-02T23:31:48.859Z,59.25
2024-02-02T23:34:15.349Z,59.49
2024-02-02T23:36:41.832Z,59.25
2024-02-02T23:39:08.287Z,59.33
2024-02-02T23:41:34.702Z,59.49
2024-02-02T23:44:01.102Z,59.37
2024-02-02T23:46:27.494Z,59.54
2024-02-02T23:48:53.969Z,59.49
2024-02-02T23:51:20.422Z,59.59
2024-02-02T23:53:46.805Z,60.08
2024-02-02T23:56:13.184Z,60.16
2024-02-02T23:58:39.575Z,59.96
